createdAt,value
2023-04-03T00:00:50.831Z,0.32
2023-04-03T00:03:18.939Z,0.75
2023-04-03T00:05:46.251Z,0.43
2023-04-03T00:08:13.180Z,0.50
2023-04-03T00:10:40.086Z,0.65
2023-04-03T00:13:07.415Z,1.60
2023-04-03T00:15:34.381Z,0.80
2023-04-03T00:18:01.431Z,1.30
2023-04-03T00:20:28.435Z,0.90
2023-04-03T00:22:55.731Z,0.50
2023-04-03T00:25:22.703Z,1.00
2023-04-03T00:27:49.524Z,0.70
2023-04-03T00:30:17.992Z,0.60
2023-04-03T00:32:45.117Z,0.65
2023-04-03T00:35:12.027Z,0.55
2023-04-03T00:37:39.058Z,0.70
2023-04-03T00:40:06.881Z,1.10
2023-04-03T00:42:33.817Z,0.73
2023-04-03T00:45:01.808Z,0.88
2023-04-03T00:47:28.682Z,0.63
2023-04-03T00:49:56.161Z,0.73
2023-04-03T00:52:24.972Z,0.70
2023-04-03T00:54:52.558Z,0.70
2023-04-03T00:57:19.400Z,0.47
2023-04-03T00:59:51.846Z,0.40
2023-04-03T01:02:19.615Z,0.40
2023-04-03T01:04:48.248Z,0.60
2023-04-03T01:07:21.200Z,1.23
2023-04-03T01:09:48.333Z,0.77
2023-04-03T01:12:17.755Z,0.50
2023-04-03T01:14:49.513Z,0.70
2023-04-03T01:17:48.817Z,0.60
2023-04-03T01:20:37.077Z,0.50
2023-04-03T01:23:09.786Z,0.63
2023-04-03T01:25:42.872Z,0.70
2023-04-03T01:28:20.695Z,0.40
2023-04-03T01:31:11.285Z,0.60
2023-04-03T01:33:39.828Z,0.47
2023-04-03T01:36:07.561Z,0.40
2023-04-03T01:38:34.664Z,0.50
2023-04-03T01:41:02.039Z,0.88
2023-04-03T01:43:29.573Z,0.47
2023-04-03T01:45:56.767Z,0.85
2023-04-03T01:48:24.373Z,0.75
2023-04-03T01:50:51.317Z,0.75
2023-04-03T01:53:19.629Z,0.50
2023-04-03T01:55:46.477Z,0.40
2023-04-03T01:58:13.279Z,0.85
2023-04-03T02:00:40.269Z,0.50
2023-04-03T02:03:07.838Z,0.45
2023-04-03T02:05:34.991Z,0.77
2023-04-03T02:08:01.968Z,0.60
2023-04-03T02:10:29.348Z,0.98
2023-04-03T02:12:57.293Z,1.02
2023-04-03T02:15:25.788Z,0.88
2023-04-03T02:17:53.131Z,0.50
2023-04-03T02:20:20.864Z,1.15
2023-04-03T02:22:47.766Z,0.90
2023-04-03T02:25:14.681Z,0.43
2023-04-03T02:27:41.739Z,0.77
2023-04-03T02:30:11.678Z,0.70
2023-04-03T02:32:38.685Z,0.43
2023-04-03T02:35:06.229Z,0.80
2023-04-03T02:37:33.765Z,0.40
2023-04-03T02:40:00.662Z,0.60
2023-04-03T02:42:28.694Z,0.70
2023-04-03T02:44:56.262Z,0.52
2023-04-03T02:47:24.050Z,0.60
2023-04-03T02:49:51.041Z,0.55
2023-04-03T02:52:17.882Z,0.50
2023-04-03T02:54:44.956Z,0.50
2023-04-03T02:57:11.922Z,0.52
2023-04-03T02:59:41.606Z,0.82
2023-04-03T03:02:10.053Z,0.50
2023-04-03T03:04:37.117Z,1.05
2023-04-03T03:07:04.276Z,0.68
2023-04-03T03:09:31.740Z,0.60
2023-04-03T03:11:59.198Z,0.50
2023-04-03T03:14:26.072Z,0.60
2023-04-03T03:16:52.916Z,0.63
2023-04-03T03:19:19.756Z,0.90
2023-04-03T03:21:46.810Z,0.50
2023-04-03T03:24:13.632Z,0.73
2023-04-03T03:26:40.916Z,1.52
2023-04-03T03:29:07.781Z,0.70
2023-04-03T03:31:34.745Z,0.85
2023-04-03T03:34:01.631Z,0.77
2023-04-03T03:36:28.516Z,0.88
2023-04-03T03:38:55.310Z,0.88
2023-04-03T03:41:22.381Z,0.60
2023-04-03T03:43:49.164Z,0.60
2023-04-03T03:46:17.237Z,0.80
2023-04-03T03:48:44.514Z,1.40
2023-04-03T03:51:11.633Z,0.85
2023-04-03T03:53:39.737Z,0.60
2023-04-03T03:56:09.809Z,0.57
2023-04-03T03:58:39.380Z,2.58
2023-04-03T04:01:07.157Z,0.60
2023-04-03T04:03:38.848Z,0.50
2023-04-03T04:06:07.523Z,0.65
2023-04-03T04:08:34.409Z,0.43
2023-04-03T04:11:01.652Z,0.52
2023-04-03T04:13:29.376Z,0.68
2023-04-03T04:15:56.420Z,0.73
2023-04-03T04:18:24.891Z,0.85
2023-04-03T04:20:51.972Z,0.82
2023-04-03T04:23:19.422Z,0.60
2023-04-03T04:25:48.165Z,0.88
2023-04-03T04:28:15.940Z,0.80
2023-04-03T04:30:43.372Z,0.52
2023-04-03T04:33:11.088Z,0.90
2023-04-03T04:35:39.182Z,0.90
2023-04-03T04:38:06.730Z,1.88
2023-04-03T04:40:33.556Z,1.58
2023-04-03T04:43:00.452Z,1.27
2023-04-03T04:45:27.423Z,0.77
2023-04-03T04:47:56.850Z,0.60
2023-04-03T04:50:25.216Z,0.98
2023-04-03T04:52:52.590Z,0.80
2023-04-03T04:55:19.547Z,0.70
2023-04-03T04:57:46.439Z,0.73
2023-04-03T05:00:14.474Z,0.85
2023-04-03T05:02:41.449Z,1.20
2023-04-03T05:05:09.011Z,1.60
2023-04-03T05:07:36.769Z,1.02
2023-04-03T05:10:04.606Z,1.05
2023-04-03T05:12:33.142Z,0.90
2023-04-03T05:15:02.403Z,1.08
2023-04-03T05:17:31.708Z,1.10
2023-04-03T05:19:59.441Z,1.00
2023-04-03T05:22:27.663Z,0.70
2023-04-03T05:24:58.889Z,0.90
2023-04-03T05:27:26.090Z,0.90
2023-04-03T05:29:55.669Z,1.13
2023-04-03T05:32:24.569Z,1.40
2023-04-03T05:35:00.193Z,1.63
2023-04-03T05:37:28.583Z,1.50
2023-04-03T05:39:56.831Z,0.98
2023-04-03T05:42:23.808Z,1.40
2023-04-03T05:44:51.220Z,1.00
2023-04-03T05:47:19.253Z,1.50
2023-04-03T05:49:46.480Z,1.38
2023-04-03T05:52:19.854Z,1.27
2023-04-03T05:54:49.099Z,1.02
2023-04-03T05:57:21.758Z,1.00
2023-04-03T05:59:48.769Z,1.20
2023-04-03T06:02:17.905Z,0.80
2023-04-03T06:04:47.404Z,1.15
2023-04-03T06:07:23.386Z,2.90
2023-04-03T06:09:51.013Z,1.00
2023-04-03T06:12:18.395Z,0.95
2023-04-03T06:14:45.437Z,1.45
2023-04-03T06:17:14.878Z,1.05
2023-04-03T06:19:41.820Z,1.58
2023-04-03T06:22:08.702Z,1.10
2023-04-03T06:24:36.464Z,1.48
2023-04-03T06:27:03.427Z,0.98
2023-04-03T06:29:30.235Z,1.08
2023-04-03T06:31:57.065Z,1.15
2023-04-03T06:34:23.876Z,0.82
2023-04-03T06:36:51.670Z,1.33
2023-04-03T06:39:23.171Z,1.38
2023-04-03T06:41:51.130Z,0.98
2023-04-03T06:44:19.241Z,1.00
2023-04-03T06:46:47.500Z,1.00
2023-04-03T06:49:14.550Z,1.20
2023-04-03T06:51:41.554Z,1.00
2023-04-03T06:54:09.300Z,1.75
2023-04-03T06:56:36.294Z,1.30
2023-04-03T06:59:03.241Z,1.30
2023-04-03T07:01:30.962Z,2.83
2023-04-03T07:03:57.920Z,1.67
2023-04-03T07:06:27.815Z,1.45
2023-04-03T07:08:55.010Z,1.10
2023-04-03T07:11:21.852Z,1.70
2023-04-03T07:13:49.293Z,1.27
2023-04-03T07:16:16.311Z,1.17
2023-04-03T07:18:43.180Z,1.77
2023-04-03T07:21:10.093Z,1.70
2023-04-03T07:23:37.028Z,1.60
2023-04-03T07:26:03.946Z,3.08
2023-04-03T07:28:30.771Z,1.65
2023-04-03T07:31:05.680Z,1.50
2023-04-03T07:33:32.732Z,1.40
2023-04-03T07:35:59.679Z,1.80
2023-04-03T07:38:26.784Z,1.50
2023-04-03T07:40:53.813Z,2.40
2023-04-03T07:43:21.774Z,1.50
2023-04-03T07:45:51.725Z,1.75
2023-04-03T07:48:26.037Z,1.38
2023-04-03T07:50:53.077Z,1.63
2023-04-03T07:53:19.899Z,1.63
2023-04-03T07:55:50.118Z,1.40
2023-04-03T07:58:18.446Z,1.60
2023-04-03T08:00:45.684Z,1.50
2023-04-03T08:03:12.992Z,1.70
2023-04-03T08:05:41.141Z,1.92
2023-04-03T08:08:08.100Z,2.17
2023-04-03T08:10:35.707Z,3.70
2023-04-03T08:13:02.839Z,2.15
2023-04-03T08:15:30.980Z,1.75
2023-04-03T08:17:57.994Z,1.70
2023-04-03T08:20:24.930Z,2.20
2023-04-03T08:22:51.767Z,2.35
2023-04-03T08:25:18.754Z,2.28
2023-04-03T08:27:45.829Z,1.67
2023-04-03T08:30:13.296Z,2.08
2023-04-03T08:32:42.967Z,2.42
2023-04-03T08:35:09.957Z,2.08
2023-04-03T08:37:37.677Z,2.53
2023-04-03T08:40:09.549Z,2.00
2023-04-03T08:42:57.719Z,2.08
2023-04-03T08:45:52.597Z,2.40
2023-04-03T08:48:36.083Z,2.08
2023-04-03T08:51:10.827Z,2.10
2023-04-03T08:53:41.063Z,2.00
2023-04-03T08:56:09.761Z,2.50
2023-04-03T08:58:57.395Z,2.90
2023-04-03T09:01:26.032Z,2.42
2023-04-03T09:03:52.975Z,2.90
2023-04-03T09:06:33.865Z,3.58
2023-04-03T09:09:21.588Z,2.95
2023-04-03T09:12:10.983Z,3.45
2023-04-03T09:14:54.939Z,3.53
2023-04-03T09:20:10.871Z,3.35
2023-04-03T09:22:45.674Z,3.22
2023-04-03T09:25:23.856Z,2.88
2023-04-03T09:27:51.767Z,3.38
2023-04-03T09:30:20.647Z,5.03
2023-04-03T09:32:48.444Z,3.53
2023-04-03T09:35:36.294Z,3.17
2023-04-03T09:38:14.247Z,3.47
2023-04-03T09:40:42.938Z,3.58
2023-04-03T09:43:19.001Z,3.22
2023-04-03T09:45:46.770Z,3.30
2023-04-03T09:48:16.219Z,3.45
2023-04-03T09:50:56.483Z,3.95
2023-04-03T09:53:30.609Z,2.92
2023-04-03T09:55:57.468Z,3.00
2023-04-03T09:58:47.354Z,3.70
2023-04-03T10:01:30.718Z,3.45
2023-04-03T10:04:18.479Z,3.08
2023-04-03T10:06:48.429Z,2.70
2023-04-03T10:09:23.929Z,2.72
2023-04-03T10:12:07.662Z,2.67
2023-04-03T10:17:13.968Z,3.03
2023-04-03T10:19:44.584Z,2.65
2023-04-03T10:22:26.133Z,2.92
2023-04-03T10:25:11.773Z,2.78
2023-04-03T10:28:04.449Z,3.13
2023-04-03T10:30:35.604Z,2.50
2023-04-03T10:33:18.943Z,2.50
2023-04-03T10:36:03.428Z,2.47
2023-04-03T10:38:55.101Z,2.58
2023-04-03T10:41:45.156Z,2.50
2023-04-03T10:44:27.150Z,2.42
2023-04-03T10:46:57.554Z,2.38
2023-04-03T10:49:44.624Z,1.83
2023-04-03T10:52:44.173Z,1.85
2023-04-03T10:57:41.899Z,2.63
2023-04-03T11:00:22.185Z,2.03
2023-04-03T11:03:00.243Z,2.30
2023-04-03T11:05:37.781Z,2.10
2023-04-03T11:08:27.503Z,2.22
2023-04-03T11:10:56.549Z,2.10
2023-04-03T11:13:39.955Z,2.47
2023-04-03T11:16:07.284Z,2.08
2023-04-03T11:18:45.901Z,2.22
2023-04-03T11:21:20.167Z,1.77
2023-04-03T11:23:50.018Z,2.05
2023-04-03T11:26:22.902Z,1.60
2023-04-03T11:29:04.600Z,2.20
2023-04-03T11:31:41.361Z,2.13
2023-04-03T11:34:08.400Z,1.70
2023-04-03T11:36:40.808Z,1.95
2023-04-03T11:39:20.309Z,1.50
2023-04-03T11:41:47.454Z,1.52
2023-04-03T11:44:43.848Z,1.80
2023-04-03T11:47:12.713Z,2.33
2023-04-03T11:49:59.181Z,1.60
2023-04-03T11:52:44.385Z,1.48
2023-04-03T11:55:21.243Z,1.60
2023-04-03T11:58:14.442Z,1.65
2023-04-03T12:01:10.311Z,1.52
2023-04-03T12:03:46.805Z,1.50
2023-04-03T12:06:17.763Z,1.75
2023-04-03T12:08:54.327Z,1.42
2023-04-03T12:11:30.064Z,1.75
2023-04-03T12:13:56.891Z,1.60
2023-04-03T12:16:28.489Z,1.60
2023-04-03T12:19:13.939Z,1.58
2023-04-03T12:21:47.217Z,1.80
2023-04-03T12:27:02.718Z,1.60
2023-04-03T12:29:35.387Z,1.40
2023-04-03T12:32:14.015Z,1.60
2023-04-03T12:34:51.443Z,2.30
2023-04-03T12:37:43.347Z,2.17
2023-04-03T12:40:33.627Z,1.83
2023-04-03T12:43:19.109Z,2.00
2023-04-03T12:46:04.484Z,2.00
2023-04-03T12:48:33.071Z,2.35
2023-04-03T12:51:00.488Z,1.92
2023-04-03T12:53:35.242Z,1.90
2023-04-03T12:56:25.172Z,1.63
2023-04-03T12:58:52.723Z,1.83
2023-04-03T13:01:24.445Z,2.10
2023-04-03T13:03:56.652Z,1.65
2023-04-03T13:06:33.933Z,2.07
2023-04-03T13:09:01.721Z,1.50
2023-04-03T13:11:31.969Z,1.63
2023-04-03T13:14:00.454Z,1.48
2023-04-03T13:16:27.639Z,1.40
2023-04-03T13:18:54.950Z,1.50
2023-04-03T13:21:29.437Z,1.63
2023-04-03T13:24:11.476Z,1.90
2023-04-03T13:26:41.637Z,1.73
2023-04-03T13:29:24.281Z,2.05
2023-04-03T13:31:57.562Z,1.85
2023-04-03T13:34:26.885Z,1.52
2023-04-03T13:36:59.050Z,1.92
2023-04-03T13:39:36.278Z,2.00
2023-04-03T13:42:23.905Z,1.88
2023-04-03T13:44:51.295Z,1.85
2023-04-03T13:47:21.016Z,1.70
2023-04-03T13:50:21.384Z,1.75
2023-04-03T13:52:55.146Z,1.75
2023-04-03T13:55:37.474Z,1.77
2023-04-03T13:58:08.646Z,1.55
2023-04-03T14:00:41.642Z,1.45
2023-04-03T14:06:02.542Z,1.45
2023-04-03T14:08:36.067Z,1.50
2023-04-03T14:11:30.617Z,1.95
2023-04-03T14:13:59.307Z,2.22
2023-04-03T14:16:28.443Z,1.98
2023-04-03T14:18:55.329Z,2.05
2023-04-03T14:21:22.524Z,2.03
2023-04-03T14:23:49.602Z,1.85
2023-04-03T14:26:18.812Z,2.10
2023-04-03T14:28:50.274Z,2.20
2023-04-03T14:31:17.241Z,2.10
2023-04-03T14:33:44.190Z,2.13
2023-04-03T14:36:17.612Z,2.20
2023-04-03T14:38:45.375Z,2.40
2023-04-03T14:41:16.916Z,2.17
2023-04-03T14:43:44.713Z,1.90
2023-04-03T14:46:16.491Z,2.65
2023-04-03T14:48:43.574Z,2.13
2023-04-03T14:51:12.244Z,2.33
2023-04-03T14:53:40.315Z,2.22
2023-04-03T14:56:29.616Z,2.17
2023-04-03T14:59:03.057Z,2.20
2023-04-03T15:01:30.910Z,2.05
2023-04-03T15:03:57.965Z,2.55
2023-04-03T15:06:24.906Z,1.92
2023-04-03T15:08:51.793Z,1.98
2023-04-03T15:11:18.734Z,2.35
2023-04-03T15:13:45.719Z,1.70
2023-04-03T15:16:18.249Z,1.73
2023-04-03T15:18:45.342Z,1.95
2023-04-03T15:21:12.237Z,1.88
2023-04-03T15:23:39.108Z,1.50
2023-04-03T15:26:06.158Z,1.65
2023-04-03T15:28:36.821Z,1.48
2023-04-03T15:31:04.270Z,1.63
2023-04-03T15:33:31.457Z,1.60
2023-04-03T15:36:06.735Z,1.73
2023-04-03T15:38:35.162Z,1.50
2023-04-03T15:41:01.961Z,1.65
2023-04-03T15:43:28.814Z,1.88
2023-04-03T15:45:57.696Z,1.40
2023-04-03T15:48:24.564Z,1.35
2023-04-03T15:50:51.437Z,1.77
2023-04-03T15:53:18.256Z,1.50
2023-04-03T15:55:45.155Z,1.50
2023-04-03T15:58:12.007Z,2.15
2023-04-03T16:00:39.207Z,2.58
2023-04-03T16:03:09.563Z,1.50
2023-04-03T16:05:36.910Z,1.40
2023-04-03T16:08:03.860Z,1.50
2023-04-03T16:10:31.377Z,1.60
2023-04-03T16:12:58.199Z,1.30
2023-04-03T16:15:25.373Z,1.33
2023-04-03T16:17:52.207Z,1.10
2023-04-03T16:20:19.723Z,1.48
2023-04-03T16:22:46.633Z,1.58
2023-04-03T16:25:13.550Z,1.20
2023-04-03T16:27:40.911Z,1.00
2023-04-03T16:30:09.020Z,1.15
2023-04-03T16:32:35.975Z,1.00
2023-04-03T16:37:34.647Z,1.10
2023-04-03T16:40:01.481Z,1.15
2023-04-03T16:42:28.331Z,1.50
2023-04-03T16:44:55.289Z,1.60
2023-04-03T16:47:22.247Z,2.10
2023-04-03T16:49:49.208Z,1.65
2023-04-03T16:52:16.196Z,1.50
2023-04-03T16:54:43.041Z,1.27
2023-04-03T16:57:09.876Z,1.50
2023-04-03T16:59:36.684Z,1.30
2023-04-03T17:02:03.694Z,1.10
2023-04-03T17:04:30.548Z,1.35
2023-04-03T17:06:58.100Z,1.13
2023-04-03T17:09:24.984Z,1.40
2023-04-03T17:11:52.145Z,1.38
2023-04-03T17:14:19.032Z,1.42
2023-04-03T17:16:46.027Z,0.70
2023-04-03T17:19:12.991Z,1.15
2023-04-03T17:21:39.869Z,0.95
2023-04-03T17:24:09.396Z,0.80
2023-04-03T17:26:37.500Z,0.60
2023-04-03T17:29:04.786Z,0.65
2023-04-03T17:31:31.741Z,1.02
2023-04-03T17:34:01.640Z,0.63
2023-04-03T17:36:31.932Z,0.93
2023-04-03T17:38:59.037Z,0.98
2023-04-03T17:41:26.286Z,0.60
2023-04-03T17:43:56.434Z,0.30
2023-04-03T17:46:24.197Z,0.50
2023-04-03T17:48:51.505Z,0.52
2023-04-03T17:51:22.752Z,0.68
2023-04-03T17:53:49.733Z,1.60
2023-04-03T17:56:18.223Z,0.60
2023-04-03T17:58:45.238Z,0.50
2023-04-03T18:01:13.743Z,0.68
2023-04-03T18:03:41.266Z,0.70
2023-04-03T18:06:10.400Z,0.80
2023-04-03T18:08:38.986Z,0.90
2023-04-03T18:11:06.025Z,0.90
2023-04-03T18:13:33.086Z,0.85
2023-04-03T18:15:59.956Z,0.95
2023-04-03T18:18:26.768Z,0.90
2023-04-03T18:20:53.677Z,0.98
2023-04-03T18:23:20.713Z,1.10
2023-04-03T18:25:47.650Z,0.93
2023-04-03T18:28:14.578Z,2.35
2023-04-03T18:30:42.039Z,0.77
2023-04-03T18:33:09.143Z,0.90
2023-04-03T18:35:35.974Z,0.60
2023-04-03T18:38:02.747Z,1.00
2023-04-03T18:40:30.475Z,1.40
2023-04-03T18:42:57.306Z,1.50
2023-04-03T18:45:24.167Z,1.02
2023-04-03T18:47:51.085Z,0.70
2023-04-03T18:50:18.063Z,1.38
2023-04-03T18:52:46.989Z,1.08
2023-04-03T18:55:15.747Z,0.90
2023-04-03T18:57:42.565Z,1.10
2023-04-03T19:00:10.309Z,1.30
2023-04-03T19:02:37.445Z,1.00
2023-04-03T19:05:05.016Z,1.02
2023-04-03T19:07:32.094Z,1.50
2023-04-03T19:09:58.933Z,1.10
2023-04-03T19:12:26.073Z,7.00
2023-04-03T19:14:53.122Z,4.65
2023-04-03T19:17:19.917Z,2.25
2023-04-03T19:19:46.749Z,1.95
2023-04-03T19:22:13.550Z,2.78
2023-04-03T19:24:40.348Z,2.08
2023-04-03T19:27:07.207Z,3.13
2023-04-03T19:29:34.049Z,0.98
2023-04-03T19:32:00.948Z,1.27
2023-04-03T19:34:27.861Z,0.90
2023-04-03T19:36:55.449Z,0.93
2023-04-03T19:39:22.373Z,2.00
2023-04-03T19:41:49.509Z,1.15
2023-04-03T19:44:16.376Z,0.80
2023-04-03T19:46:50.737Z,0.98
2023-04-03T19:49:19.422Z,1.17
2023-04-03T19:51:46.277Z,1.10
2023-04-03T19:54:13.107Z,1.15
2023-04-03T19:56:39.925Z,1.05
2023-04-03T19:59:06.820Z,1.02
2023-04-03T20:01:34.679Z,1.02
2023-04-03T20:04:02.093Z,1.55
2023-04-03T20:06:29.080Z,1.40
2023-04-03T20:08:56.065Z,1.40
2023-04-03T20:11:23.817Z,1.10
2023-04-03T20:13:51.527Z,1.20
2023-04-03T20:16:18.792Z,1.88
2023-04-03T20:18:47.306Z,2.33
2023-04-03T20:21:14.292Z,0.93
2023-04-03T20:23:41.542Z,0.90
2023-04-03T20:26:13.917Z,1.63
2023-04-03T20:28:42.911Z,1.10
2023-04-03T20:31:11.975Z,1.50
2023-04-03T20:33:39.011Z,1.13
2023-04-03T20:36:06.174Z,1.10
2023-04-03T20:38:33.018Z,0.90
2023-04-03T20:41:00.350Z,1.00
2023-04-03T20:43:28.472Z,0.88
2023-04-03T20:45:55.757Z,1.63
2023-04-03T20:48:22.673Z,1.75
2023-04-03T20:50:49.587Z,1.45
2023-04-03T20:53:18.106Z,2.25
2023-04-03T20:55:55.636Z,1.70
2023-04-03T20:58:25.126Z,1.70
2023-04-03T21:00:52.196Z,1.83
2023-04-03T21:03:19.295Z,1.35
2023-04-03T21:05:46.789Z,1.20
2023-04-03T21:08:51.172Z,1.50
2023-04-03T21:11:55.326Z,2.97
2023-04-03T21:14:59.553Z,4.00
2023-04-03T21:17:26.690Z,2.03
2023-04-03T21:19:53.586Z,2.70
2023-04-03T21:22:20.405Z,1.83
2023-04-03T21:24:47.330Z,1.60
2023-04-03T21:27:14.190Z,2.10
2023-04-03T21:29:41.610Z,1.55
2023-04-03T21:32:08.424Z,1.70
2023-04-03T21:34:35.311Z,1.40
2023-04-03T21:37:07.040Z,2.17
2023-04-03T21:39:33.975Z,1.30
2023-04-03T21:42:00.913Z,2.03
2023-04-03T21:44:28.480Z,1.25
2023-04-03T21:46:55.518Z,3.53
2023-04-03T21:49:23.105Z,1.75
2023-04-03T21:51:51.613Z,1.20
2023-04-03T21:54:19.062Z,1.50
2023-04-03T21:56:48.190Z,1.27
2023-04-03T21:59:15.942Z,1.65
2023-04-03T22:01:43.297Z,1.30
2023-04-03T22:04:10.787Z,2.08
2023-04-03T22:06:38.171Z,1.48
2023-04-03T22:09:05.245Z,1.75
2023-04-03T22:11:32.326Z,1.55
2023-04-03T22:13:59.850Z,1.52
2023-04-03T22:16:27.530Z,1.92
2023-04-03T22:18:55.001Z,1.58
2023-04-03T22:21:22.418Z,1.20
2023-04-03T22:23:49.442Z,1.33
2023-04-03T22:26:16.485Z,2.03
2023-04-03T22:28:44.546Z,1.67
2023-04-03T22:31:13.450Z,1.42
2023-04-03T22:33:41.354Z,1.58
2023-04-03T22:36:10.284Z,1.80
2023-04-03T22:38:37.952Z,1.75
2023-04-03T22:41:06.274Z,2.15
2023-04-03T22:43:34.513Z,1.35
2023-04-03T22:46:02.128Z,1.58
2023-04-03T22:48:29.047Z,2.45
2023-04-03T22:50:55.989Z,2.75
2023-04-03T22:53:23.150Z,1.73
2023-04-03T22:55:59.414Z,1.40
2023-04-03T22:58:26.582Z,1.50
2023-04-03T23:01:05.247Z,1.85
2023-04-03T23:03:32.293Z,1.80
2023-04-03T23:05:59.076Z,2.35
2023-04-03T23:08:26.511Z,1.40
2023-04-03T23:10:57.240Z,1.60
2023-04-03T23:13:24.883Z,1.73
2023-04-03T23:15:54.717Z,1.90
2023-04-03T23:18:21.754Z,2.00
2023-04-03T23:20:51.622Z,2.08
2023-04-03T23:23:25.236Z,1.60
2023-04-03T23:26:01.926Z,1.88
2023-04-03T23:28:28.953Z,1.70
2023-04-03T23:31:00.535Z,1.60
2023-04-03T23:33:27.967Z,1.90
2023-04-03T23:35:54.801Z,1.80
2023-04-03T23:38:21.683Z,2.55
2023-04-03T23:40:48.529Z,1.50
2023-04-03T23:43:15.575Z,1.90
2023-04-03T23:45:44.174Z,2.20
2023-04-03T23:48:10.967Z,1.58
2023-04-03T23:50:38.395Z,1.70
2023-04-03T23:53:05.425Z,2.55
2023-04-03T23:55:32.370Z,1.98
2023-04-03T23:57:59.183Z,1.85
